createdAt,value
2023-01-08T00:00:57.881Z,12.70
2023-01-08T00:05:02.775Z,12.27
2023-01-08T00:09:05.768Z,12.77
2023-01-08T00:13:09.076Z,13.18
2023-01-08T00:17:12.321Z,12.70
2023-01-08T00:21:16.928Z,11.90
2023-01-08T00:25:20.695Z,11.52
2023-01-08T00:29:23.751Z,12.30
2023-01-08T00:33:26.760Z,13.27
2023-01-08T00:37:31.351Z,12.45
2023-01-08T00:41:34.803Z,12.57
2023-01-08T00:45:37.927Z,12.05
2023-01-08T00:49:40.934Z,12.70
2023-01-08T00:53:45.335Z,13.27
2023-01-08T00:57:48.329Z,13.05
2023-01-08T01:01:52.907Z,13.38
2023-01-08T01:06:01.855Z,12.85
2023-01-08T01:10:07.406Z,12.65
2023-01-08T01:14:11.220Z,11.85
2023-01-08T01:18:14.307Z,12.10
2023-01-08T01:22:17.442Z,12.93
2023-01-08T01:26:23.075Z,13.00
2023-01-08T01:30:26.328Z,12.50
2023-01-08T01:34:29.314Z,12.15
2023-01-08T01:38:32.783Z,12.55
2023-01-08T01:42:44.130Z,12.60
2023-01-08T01:46:49.195Z,12.93
2023-01-08T01:50:55.324Z,13.50
2023-01-08T01:55:01.287Z,12.88
2023-01-08T01:59:06.695Z,12.50
2023-01-08T02:03:11.780Z,12.45
2023-01-08T02:07:21.596Z,12.68
2023-01-08T02:11:31.303Z,13.82
2023-01-08T02:15:43.926Z,13.20
2023-01-08T02:19:50.987Z,11.57
2023-01-08T02:24:02.224Z,12.25
2023-01-08T02:28:11.795Z,12.02
2023-01-08T02:32:15.441Z,12.45
2023-01-08T02:36:46.389Z,12.43
2023-01-08T02:40:58.245Z,11.98
2023-01-08T02:45:12.986Z,12.52
2023-01-08T02:49:18.049Z,12.82
2023-01-08T02:53:24.226Z,12.15
2023-01-08T02:57:28.643Z,12.13
2023-01-08T03:01:36.108Z,11.88
2023-01-08T03:05:42.372Z,12.27
2023-01-08T03:09:49.005Z,12.27
2023-01-08T03:13:58.411Z,11.95
2023-01-08T03:18:08.776Z,11.30
2023-01-08T03:22:15.543Z,11.45
2023-01-08T03:26:23.286Z,13.30
2023-01-08T03:30:26.829Z,12.27
2023-01-08T03:34:35.498Z,11.70
2023-01-08T03:38:43.482Z,12.43
2023-01-08T03:42:46.530Z,11.52
2023-01-08T03:46:54.580Z,11.48
2023-01-08T03:50:58.950Z,12.55
2023-01-08T03:55:02.250Z,12.38
2023-01-08T03:59:05.308Z,11.30
2023-01-08T04:03:08.627Z,11.82
2023-01-08T04:07:13.474Z,11.82
2023-01-08T04:11:16.554Z,12.32
2023-01-08T04:15:19.785Z,12.27
2023-01-08T04:19:23.011Z,12.13
2023-01-08T04:23:27.786Z,11.73
2023-01-08T04:27:30.809Z,11.68
2023-01-08T04:31:34.183Z,12.52
2023-01-08T04:35:37.523Z,12.50
2023-01-08T04:39:42.084Z,12.73
2023-01-08T04:43:45.118Z,11.18
2023-01-08T04:47:48.376Z,10.85
2023-01-08T04:51:51.397Z,11.57
2023-01-08T04:55:56.312Z,11.40
2023-01-08T04:59:59.504Z,12.50
2023-01-08T05:04:04.333Z,11.80
2023-01-08T05:08:07.353Z,11.25
2023-01-08T05:12:11.963Z,11.43
2023-01-08T05:16:15.224Z,11.55
2023-01-08T05:20:19.120Z,10.57
2023-01-08T05:24:22.523Z,10.80
2023-01-08T05:28:27.436Z,11.95
2023-01-08T05:32:30.462Z,11.88
2023-01-08T05:36:33.687Z,10.85
2023-01-08T05:40:36.761Z,11.10
2023-01-08T05:44:41.168Z,11.38
2023-01-08T05:48:44.151Z,12.60
2023-01-08T05:52:47.207Z,11.88
2023-01-08T05:56:50.237Z,11.02
2023-01-08T06:00:54.737Z,11.02
2023-01-08T06:04:57.740Z,10.98
2023-01-08T06:09:00.761Z,11.98
2023-01-08T06:13:08.336Z,10.38
2023-01-08T06:17:12.871Z,10.68
2023-01-08T06:21:16.165Z,11.02
2023-01-08T06:25:19.166Z,10.73
2023-01-08T06:29:22.405Z,11.32
2023-01-08T06:33:26.856Z,11.00
2023-01-08T06:37:29.890Z,11.73
2023-01-08T06:41:32.947Z,11.77
2023-01-08T06:45:36.061Z,12.05
2023-01-08T06:49:40.522Z,10.82
2023-01-08T06:53:43.626Z,11.25
2023-01-08T06:57:46.613Z,11.25
2023-01-08T07:01:50.101Z,11.30
2023-01-08T07:05:54.537Z,10.00
2023-01-08T07:09:57.664Z,11.38
2023-01-08T07:14:00.713Z,11.55
2023-01-08T07:18:05.978Z,10.75
2023-01-08T07:22:10.504Z,11.57
2023-01-08T07:26:13.686Z,12.70
2023-01-08T07:30:28.949Z,12.63
2023-01-08T07:34:34.741Z,11.75
2023-01-08T07:38:39.145Z,11.85
2023-01-08T07:42:42.328Z,12.07
2023-01-08T07:46:46.121Z,11.32
2023-01-08T07:50:49.302Z,12.07
2023-01-08T07:54:53.665Z,12.30
2023-01-08T07:58:56.958Z,12.68
2023-01-08T08:03:04.667Z,12.10
2023-01-08T08:07:08.016Z,12.82
2023-01-08T08:11:12.426Z,12.40
2023-01-08T08:15:15.716Z,11.80
2023-01-08T08:19:18.738Z,13.02
2023-01-08T08:23:21.877Z,11.90
2023-01-08T08:27:26.264Z,11.90
2023-01-08T08:31:29.337Z,11.48
2023-01-08T08:35:33.228Z,12.30
2023-01-08T08:39:36.316Z,12.30
2023-01-08T08:43:40.727Z,11.35
2023-01-08T08:47:43.758Z,13.00
2023-01-08T08:51:46.795Z,10.98
2023-01-08T08:55:49.867Z,11.15
2023-01-08T08:59:54.538Z,12.38
2023-01-08T09:03:57.540Z,11.95
2023-01-08T09:08:00.580Z,10.65
2023-01-08T09:12:04.165Z,11.00
2023-01-08T09:16:09.226Z,10.73
2023-01-08T09:20:12.586Z,11.38
2023-01-08T09:24:15.607Z,10.48
2023-01-08T09:28:18.869Z,10.75
2023-01-08T09:32:23.235Z,10.85
2023-01-08T09:36:26.502Z,11.55
2023-01-08T09:40:35.134Z,10.88
2023-01-08T09:44:41.383Z,11.32
2023-01-08T09:48:47.080Z,11.80
2023-01-08T09:52:50.146Z,10.60
2023-01-08T09:56:54.790Z,10.90
2023-01-08T10:00:58.348Z,10.48
2023-01-08T10:05:05.166Z,9.82
2023-01-08T10:09:13.655Z,9.95
2023-01-08T10:13:17.551Z,10.43
2023-01-08T10:17:28.040Z,9.90
2023-01-08T10:21:34.094Z,9.88
2023-01-08T10:25:49.806Z,10.57
2023-01-08T10:29:53.615Z,9.80
2023-01-08T10:33:56.746Z,9.90
2023-01-08T10:38:01.342Z,10.10
2023-01-08T10:42:07.719Z,9.00
2023-01-08T10:46:21.324Z,8.48
2023-01-08T10:50:26.715Z,8.23
2023-01-08T10:54:35.913Z,9.20
2023-01-08T10:58:42.907Z,8.13
2023-01-08T11:02:50.554Z,8.80
2023-01-08T11:06:59.627Z,8.52
2023-01-08T11:11:04.201Z,8.75
2023-01-08T11:15:25.386Z,8.18
2023-01-08T11:19:31.164Z,8.05
2023-01-08T11:23:34.230Z,7.38
2023-01-08T11:27:43.425Z,7.82
2023-01-08T11:31:54.214Z,7.90
2023-01-08T11:36:04.175Z,7.55
2023-01-08T11:40:15.635Z,7.68
2023-01-08T11:44:32.904Z,7.35
2023-01-08T11:48:52.230Z,7.00
2023-01-08T11:53:08.879Z,6.70
2023-01-08T11:57:22.833Z,7.07
2023-01-08T12:01:44.508Z,6.57
2023-01-08T12:05:51.104Z,8.05
2023-01-08T12:10:01.179Z,7.45
2023-01-08T12:14:31.004Z,7.28
2023-01-08T12:18:50.601Z,7.50
2023-01-08T12:23:01.352Z,7.10
2023-01-08T12:27:13.576Z,7.65
2023-01-08T12:31:39.851Z,7.05
2023-01-08T12:35:49.998Z,8.50
2023-01-08T12:40:01.129Z,6.93
2023-01-08T12:44:05.806Z,7.43
2023-01-08T12:48:12.626Z,7.28
2023-01-08T12:52:24.896Z,6.90
2023-01-08T12:56:36.942Z,6.78
2023-01-08T13:00:44.138Z,7.22
2023-01-08T13:04:48.748Z,7.30
2023-01-08T13:08:56.559Z,6.68
2023-01-08T13:13:02.002Z,7.05
2023-01-08T13:17:07.107Z,7.60
2023-01-08T13:21:13.016Z,7.47
2023-01-08T13:25:34.044Z,7.00
2023-01-08T13:29:39.903Z,7.15
2023-01-08T13:33:44.134Z,7.63
2023-01-08T13:37:48.987Z,7.95
2023-01-08T13:42:02.875Z,7.20
2023-01-08T13:46:27.077Z,8.07
2023-01-08T13:50:32.566Z,7.97
2023-01-08T13:54:38.906Z,8.60
2023-01-08T13:58:52.331Z,8.50
2023-01-08T14:02:55.531Z,8.50
2023-01-08T14:07:12.087Z,8.07
2023-01-08T14:11:15.230Z,9.15
2023-01-08T14:15:25.149Z,7.97
2023-01-08T14:19:29.115Z,7.95
2023-01-08T14:23:43.090Z,8.75
2023-01-08T14:27:57.308Z,8.75
2023-01-08T14:32:02.522Z,8.60
2023-01-08T14:36:08.505Z,7.35
2023-01-08T14:40:16.089Z,8.10
2023-01-08T14:44:25.996Z,8.57
2023-01-08T14:48:40.623Z,8.50
2023-01-08T14:52:43.664Z,7.43
2023-01-08T14:56:50.215Z,7.75
2023-01-08T15:00:55.622Z,7.30
2023-01-08T15:05:05.794Z,6.70
2023-01-08T15:09:21.912Z,6.93
2023-01-08T15:13:30.815Z,6.30
2023-01-08T15:17:33.856Z,5.82
2023-01-08T15:21:38.725Z,6.47
2023-01-08T15:25:45.837Z,5.70
2023-01-08T15:29:50.289Z,6.20
2023-01-08T15:33:53.233Z,4.90
2023-01-08T15:37:57.486Z,5.28
2023-01-08T15:42:21.529Z,5.15
2023-01-08T15:46:24.383Z,4.75
2023-01-08T15:50:28.936Z,5.07
2023-01-08T15:54:33.312Z,4.72
2023-01-08T15:58:36.217Z,4.88
2023-01-08T16:02:43.221Z,3.80
2023-01-08T16:06:48.893Z,4.85
2023-01-08T16:10:54.310Z,4.82
2023-01-08T16:14:57.214Z,4.80
2023-01-08T16:19:00.659Z,4.97
2023-01-08T16:23:03.628Z,6.18
2023-01-08T16:27:08.711Z,5.70
2023-01-08T16:31:12.178Z,5.80
2023-01-08T16:35:15.386Z,5.78
2023-01-08T16:39:19.358Z,5.70
2023-01-08T16:43:23.652Z,5.80
2023-01-08T16:47:26.667Z,5.47
2023-01-08T16:51:29.547Z,5.43
2023-01-08T16:55:33.136Z,5.55
2023-01-08T16:59:37.443Z,5.78
2023-01-08T17:03:40.383Z,5.57
2023-01-08T17:07:43.350Z,5.40
2023-01-08T17:11:47.734Z,5.57
2023-01-08T17:15:53.188Z,5.80
2023-01-08T17:19:56.170Z,6.43
2023-01-08T17:23:59.049Z,6.32
2023-01-08T17:28:01.966Z,5.72
2023-01-08T17:32:06.725Z,5.65
2023-01-08T17:36:13.730Z,6.60
2023-01-08T17:40:16.757Z,5.47
2023-01-08T17:44:19.793Z,5.82
2023-01-08T17:48:24.039Z,6.20
2023-01-08T17:52:27.171Z,4.70
2023-01-08T17:56:30.099Z,6.13
2023-01-08T18:00:33.395Z,5.55
2023-01-08T18:04:39.052Z,5.82
2023-01-08T18:08:42.069Z,6.47
2023-01-08T18:12:44.965Z,5.45
2023-01-08T18:16:49.549Z,6.50
2023-01-08T18:20:55.280Z,6.07
2023-01-08T18:24:58.206Z,6.05
2023-01-08T18:29:01.362Z,7.25
2023-01-08T18:33:04.221Z,7.43
2023-01-08T18:37:08.562Z,7.05
2023-01-08T18:41:33.955Z,6.85
2023-01-08T18:45:38.674Z,7.82
2023-01-08T18:49:41.694Z,7.70
2023-01-08T18:53:46.006Z,7.95
2023-01-08T18:57:51.174Z,7.78
2023-01-08T19:01:54.181Z,7.80
2023-01-08T19:05:57.141Z,7.30
2023-01-08T19:10:02.323Z,8.00
2023-01-08T19:14:05.265Z,7.95
2023-01-08T19:18:08.920Z,7.75
2023-01-08T19:22:12.120Z,7.93
2023-01-08T19:26:16.773Z,7.53
2023-01-08T19:30:19.996Z,7.60
2023-01-08T19:34:22.941Z,7.40
2023-01-08T19:38:26.019Z,8.10
2023-01-08T19:42:47.648Z,7.60
2023-01-08T19:46:50.717Z,8.55
2023-01-08T19:50:54.026Z,7.78
2023-01-08T19:54:58.374Z,7.63
2023-01-08T19:59:02.657Z,7.78
2023-01-08T20:03:06.387Z,7.72
2023-01-08T20:07:09.399Z,7.80
2023-01-08T20:11:14.219Z,8.48
2023-01-08T20:15:19.292Z,8.40
2023-01-08T20:19:22.219Z,7.78
2023-01-08T20:23:25.709Z,7.70
2023-01-08T20:27:28.811Z,7.40
2023-01-08T20:31:34.588Z,7.97
2023-01-08T20:35:37.723Z,8.77
2023-01-08T20:39:41.996Z,9.07
2023-01-08T20:43:44.887Z,8.48
2023-01-08T20:47:49.143Z,7.43
2023-01-08T20:51:58.530Z,7.78
2023-01-08T20:56:05.730Z,8.30
2023-01-08T21:00:10.129Z,8.25
2023-01-08T21:04:14.463Z,7.80
2023-01-08T21:08:17.392Z,7.28
2023-01-08T21:12:20.296Z,6.78
2023-01-08T21:16:25.105Z,8.23
2023-01-08T21:20:29.392Z,7.40
2023-01-08T21:24:32.318Z,7.00
2023-01-08T21:28:35.560Z,6.80
2023-01-08T21:32:38.466Z,6.78
2023-01-08T21:36:42.789Z,6.55
2023-01-08T21:40:45.786Z,6.85
2023-01-08T21:45:06.181Z,7.45
2023-01-08T21:49:09.136Z,6.65
2023-01-08T21:53:31.081Z,6.93
2023-01-08T21:57:39.358Z,6.20
2023-01-08T22:01:42.520Z,6.32
2023-01-08T22:05:45.808Z,6.85
2023-01-08T22:09:50.073Z,7.03
2023-01-08T22:13:52.938Z,5.97
2023-01-08T22:17:55.906Z,6.45
2023-01-08T22:21:58.817Z,6.68
2023-01-08T22:26:05.903Z,7.22
2023-01-08T22:30:10.248Z,7.28
2023-01-08T22:34:17.089Z,7.20
2023-01-08T22:38:20.030Z,6.10
2023-01-08T22:42:25.876Z,7.05
2023-01-08T22:46:28.908Z,7.47
2023-01-08T22:50:31.872Z,6.82
2023-01-08T22:54:34.789Z,6.82
2023-01-08T22:58:40.351Z,6.88
2023-01-08T23:02:43.369Z,6.35
2023-01-08T23:06:46.304Z,6.45
2023-01-08T23:10:49.668Z,7.32
2023-01-08T23:14:54.237Z,6.97
2023-01-08T23:18:57.949Z,7.03
2023-01-08T23:23:00.861Z,7.40
2023-01-08T23:27:03.908Z,7.43
2023-01-08T23:31:09.731Z,7.00
2023-01-08T23:35:12.644Z,7.80
2023-01-08T23:39:15.627Z,8.20
2023-01-08T23:43:18.537Z,7.53
2023-01-08T23:47:22.827Z,7.70
2023-01-08T23:51:25.913Z,8.20
2023-01-08T23:55:28.897Z,7.57
2023-01-08T23:59:31.831Z,8.07
